createdAt,value
2022-11-20T00:01:11.772Z,3.30
2022-11-20T00:07:09.677Z,2.80
2022-11-20T00:12:36.082Z,3.17
2022-11-20T00:18:09.782Z,3.33
2022-11-20T00:23:40.371Z,2.90
2022-11-20T00:29:17.805Z,2.70
2022-11-20T00:32:06.402Z,2.43
2022-11-20T00:37:36.083Z,2.50
2022-11-20T00:40:24.183Z,2.60
2022-11-20T00:46:00.493Z,2.37
2022-11-20T00:48:49.918Z,2.30
2022-11-20T00:54:29.907Z,1.77
2022-11-20T01:00:01.815Z,1.80
2022-11-20T01:02:50.989Z,1.80
2022-11-20T01:05:43.741Z,2.00
2022-11-20T01:11:24.032Z,2.40
2022-11-20T01:14:16.139Z,2.10
2022-11-20T01:20:00.926Z,2.00
2022-11-20T01:22:49.473Z,1.90
2022-11-20T01:28:20.323Z,2.23
2022-11-20T01:31:14.696Z,1.83
2022-11-20T01:34:05.346Z,2.20
2022-11-20T01:36:54.343Z,1.97
2022-11-20T01:42:42.125Z,2.10
2022-11-20T01:48:50.837Z,2.10
2022-11-20T01:54:31.901Z,1.90
2022-11-20T02:00:11.299Z,2.10
2022-11-20T02:05:48.566Z,1.97
2022-11-20T02:08:37.245Z,1.93
2022-11-20T02:11:25.727Z,2.17
2022-11-20T02:14:14.463Z,2.43
2022-11-20T02:17:02.810Z,2.30
2022-11-20T02:22:41.489Z,1.80
2022-11-20T02:28:21.013Z,1.67
2022-11-20T02:31:09.384Z,1.90
2022-11-20T02:36:47.706Z,2.30
2022-11-20T02:42:17.134Z,2.40
2022-11-20T02:51:08.814Z,1.80
2022-11-20T02:57:45.118Z,1.87
2022-11-20T03:04:19.969Z,2.17
2022-11-20T03:10:55.812Z,1.63
2022-11-20T03:17:06.390Z,1.87
2022-11-20T03:23:43.007Z,1.60
2022-11-20T03:30:18.884Z,1.63
2022-11-20T03:36:54.173Z,1.33
2022-11-20T03:43:29.987Z,1.60
2022-11-20T03:48:59.004Z,1.90
2022-11-20T03:51:48.718Z,1.30
2022-11-20T03:54:38.086Z,1.70
2022-11-20T04:00:14.973Z,1.60
2022-11-20T04:05:50.517Z,2.00
2022-11-20T04:11:26.434Z,1.60
2022-11-20T04:14:17.142Z,1.63
2022-11-20T04:17:06.332Z,1.57
2022-11-20T04:22:38.662Z,1.83
2022-11-20T04:25:27.376Z,1.70
2022-11-20T04:28:18.689Z,1.80
2022-11-20T04:33:56.204Z,2.10
2022-11-20T04:36:45.831Z,1.60
2022-11-20T04:39:34.339Z,1.80
2022-11-20T04:45:12.184Z,1.90
2022-11-20T04:48:02.148Z,1.70
2022-11-20T04:53:32.959Z,1.80
2022-11-20T04:56:22.102Z,2.00
2022-11-20T05:01:59.706Z,1.37
2022-11-20T05:07:36.547Z,1.73
2022-11-20T05:13:08.924Z,1.37
2022-11-20T05:15:57.437Z,1.70
2022-11-20T05:21:33.176Z,1.40
2022-11-20T05:24:21.558Z,1.70
2022-11-20T05:27:10.180Z,1.80
2022-11-20T05:29:58.327Z,1.80
2022-11-20T05:32:46.122Z,1.90
2022-11-20T05:35:34.727Z,1.70
2022-11-20T05:38:23.460Z,1.60
2022-11-20T05:41:13.463Z,2.10
2022-11-20T05:46:47.956Z,1.80
2022-11-20T05:52:18.115Z,2.00
2022-11-20T05:55:07.522Z,2.17
2022-11-20T05:57:56.413Z,2.10
2022-11-20T06:00:44.533Z,2.10
2022-11-20T06:03:34.099Z,2.00
2022-11-20T06:06:26.276Z,2.10
2022-11-20T06:09:15.756Z,1.90
2022-11-20T06:12:04.110Z,1.90
2022-11-20T06:17:39.763Z,2.13
2022-11-20T06:23:08.851Z,1.60
2022-11-20T06:28:44.581Z,1.60
2022-11-20T06:31:35.787Z,1.80
2022-11-20T06:34:26.247Z,2.00
2022-11-20T06:37:15.751Z,2.00
2022-11-20T06:42:52.208Z,2.13
2022-11-20T06:45:42.071Z,1.67
2022-11-20T06:48:30.822Z,1.60
2022-11-20T06:51:19.714Z,2.00
2022-11-20T06:54:08.086Z,1.70
2022-11-20T06:59:47.373Z,1.53
2022-11-20T07:05:17.095Z,1.60
2022-11-20T07:08:07.052Z,1.47
2022-11-20T07:16:25.486Z,1.70
2022-11-20T07:22:17.875Z,1.70
2022-11-20T07:27:48.699Z,1.60
2022-11-20T07:33:25.153Z,1.70
2022-11-20T07:39:01.518Z,1.60
2022-11-20T07:41:49.500Z,1.70
2022-11-20T07:44:37.600Z,1.47
2022-11-20T07:47:25.942Z,1.60
2022-11-20T07:52:58.297Z,1.47
2022-11-20T07:55:46.629Z,1.47
2022-11-20T07:58:35.694Z,1.50
2022-11-20T08:01:24.130Z,1.40
2022-11-20T08:06:59.279Z,1.37
2022-11-20T08:09:47.689Z,1.40
2022-11-20T08:12:54.914Z,1.50
2022-11-20T08:15:43.451Z,1.40
2022-11-20T08:21:20.378Z,1.50
2022-11-20T08:26:58.547Z,1.23
2022-11-20T08:29:48.036Z,1.63
2022-11-20T08:32:38.276Z,1.13
2022-11-20T08:35:28.016Z,1.40
2022-11-20T08:38:17.447Z,1.20
2022-11-20T08:43:55.655Z,1.17
2022-11-20T08:49:31.295Z,1.20
2022-11-20T08:55:09.309Z,1.20
2022-11-20T08:57:57.362Z,1.27
2022-11-20T09:03:33.079Z,0.90
2022-11-20T09:06:21.767Z,1.07
2022-11-20T09:09:10.088Z,1.10
2022-11-20T09:14:40.582Z,1.20
2022-11-20T09:17:28.993Z,1.07
2022-11-20T09:20:18.184Z,1.10
2022-11-20T09:23:06.129Z,1.43
2022-11-20T09:28:43.523Z,1.30
2022-11-20T09:34:19.844Z,0.97
2022-11-20T09:39:53.427Z,1.27
2022-11-20T09:45:27.258Z,1.10
2022-11-20T09:51:26.079Z,1.00
2022-11-20T09:54:21.025Z,1.10
2022-11-20T09:57:13.126Z,1.10
2022-11-20T10:02:55.606Z,1.00
2022-11-20T10:08:37.082Z,1.40
2022-11-20T10:14:12.595Z,1.30
2022-11-20T10:20:02.128Z,1.27
2022-11-20T10:25:54.102Z,1.00
2022-11-20T10:31:36.383Z,1.07
2022-11-20T10:37:15.267Z,1.17
2022-11-20T10:42:55.063Z,1.20
2022-11-20T10:48:36.245Z,1.13
2022-11-20T10:54:26.832Z,1.07
2022-11-20T11:00:12.747Z,1.10
2022-11-20T11:05:51.165Z,1.20
2022-11-20T11:11:24.900Z,1.20
2022-11-20T11:14:15.171Z,0.90
2022-11-20T11:17:03.784Z,0.97
2022-11-20T11:22:58.493Z,0.97
2022-11-20T11:25:50.634Z,1.23
2022-11-20T11:31:26.750Z,0.93
2022-11-20T11:42:59.596Z,1.13
2022-11-20T11:48:40.682Z,0.70
2022-11-20T11:51:31.990Z,0.73
2022-11-20T11:57:14.200Z,0.77
2022-11-20T12:02:57.712Z,0.83
2022-11-20T12:05:49.272Z,0.80
2022-11-20T12:08:40.925Z,0.93
2022-11-20T12:14:20.647Z,0.90
2022-11-20T12:19:56.083Z,1.00
2022-11-20T12:25:31.184Z,1.00
2022-11-20T12:31:33.196Z,1.20
2022-11-20T12:34:48.395Z,1.43
2022-11-20T12:40:34.830Z,1.30
2022-11-20T12:43:44.008Z,1.10
2022-11-20T12:52:24.648Z,0.90
2022-11-20T12:58:19.005Z,1.20
2022-11-20T13:01:12.307Z,0.90
2022-11-20T13:06:53.529Z,1.30
2022-11-20T13:12:33.240Z,1.13
2022-11-20T13:18:13.323Z,0.80
2022-11-20T13:21:02.792Z,1.00
2022-11-20T13:29:22.936Z,0.83
2022-11-20T13:35:01.059Z,0.80
2022-11-20T13:40:37.510Z,0.80
2022-11-20T13:46:24.615Z,1.00
2022-11-20T13:52:25.461Z,0.77
2022-11-20T13:58:12.629Z,1.00
2022-11-20T14:04:05.535Z,0.90
2022-11-20T14:06:44.531Z,0.90
2022-11-20T14:09:34.946Z,0.80
2022-11-20T14:15:28.643Z,0.80
2022-11-20T14:18:22.586Z,0.90
2022-11-20T14:21:12.695Z,0.80
2022-11-20T14:26:59.108Z,0.60
2022-11-20T14:29:48.438Z,0.53
2022-11-20T14:35:20.688Z,0.43
2022-11-20T14:41:09.596Z,0.77
2022-11-20T14:43:59.537Z,0.80
2022-11-20T14:46:47.491Z,0.60
2022-11-20T14:49:37.002Z,0.73
2022-11-20T14:52:26.554Z,0.70
2022-11-20T14:55:16.979Z,0.70
2022-11-20T15:00:58.626Z,0.70
2022-11-20T15:03:47.090Z,0.70
2022-11-20T15:09:18.244Z,0.77
2022-11-20T15:14:52.635Z,0.73
2022-11-20T15:20:34.849Z,0.73
2022-11-20T15:26:18.375Z,0.80
2022-11-20T15:31:51.275Z,0.70
2022-11-20T15:34:40.321Z,0.80
2022-11-20T15:37:30.074Z,0.70
2022-11-20T15:43:11.379Z,1.00
2022-11-20T15:48:47.925Z,0.90
2022-11-20T15:54:25.464Z,0.60
2022-11-20T16:00:23.433Z,0.93
2022-11-20T16:06:03.454Z,0.90
2022-11-20T16:08:54.100Z,0.70
2022-11-20T16:11:42.939Z,0.57
2022-11-20T16:14:50.645Z,0.97
2022-11-20T16:17:44.620Z,0.60
2022-11-20T16:23:17.167Z,0.97
2022-11-20T16:26:12.777Z,0.73
2022-11-20T16:34:36.943Z,0.80
2022-11-20T16:37:25.198Z,0.80
2022-11-20T16:45:46.742Z,0.70
2022-11-20T16:48:35.215Z,1.00
2022-11-20T16:51:24.275Z,0.80
2022-11-20T16:54:30.610Z,0.93
2022-11-20T17:00:19.803Z,1.00
2022-11-20T17:05:55.815Z,0.80
2022-11-20T17:11:30.855Z,0.87
2022-11-20T17:17:07.423Z,1.13
2022-11-20T17:19:58.553Z,0.87
2022-11-20T17:25:29.087Z,0.73
2022-11-20T17:31:03.986Z,0.90
2022-11-20T17:33:52.242Z,1.00
2022-11-20T17:39:26.283Z,0.93
2022-11-20T17:47:44.712Z,1.10
2022-11-20T17:50:33.165Z,1.00
2022-11-20T17:57:04.454Z,1.20
2022-11-20T18:02:31.410Z,1.10
2022-11-20T18:08:01.715Z,1.00
2022-11-20T18:13:33.983Z,1.13
2022-11-20T18:16:22.749Z,1.00
2022-11-20T18:21:50.539Z,1.20
2022-11-20T18:30:42.734Z,1.20
2022-11-20T18:53:26.623Z,1.47
2022-11-20T19:01:41.614Z,1.67
2022-11-20T19:07:18.797Z,1.10
2022-11-20T19:10:10.443Z,2.10
2022-11-20T19:15:46.629Z,1.10
2022-11-20T19:18:34.962Z,0.93
2022-11-20T19:21:24.819Z,1.00
2022-11-20T19:24:13.867Z,1.17
2022-11-20T19:27:02.067Z,1.50
2022-11-20T19:29:55.434Z,1.37
2022-11-20T19:32:45.028Z,1.50
2022-11-20T19:35:33.432Z,1.10
2022-11-20T19:41:04.941Z,1.10
2022-11-20T19:46:37.762Z,1.20
2022-11-20T19:52:17.466Z,1.17
2022-11-20T19:57:45.870Z,1.77
2022-11-20T20:03:15.146Z,1.40
2022-11-20T20:08:49.555Z,1.20
2022-11-20T20:14:26.129Z,1.50
2022-11-20T20:17:14.059Z,1.37
2022-11-20T20:20:02.257Z,1.30
2022-11-20T20:25:38.909Z,1.40
2022-11-20T20:31:12.434Z,1.10
2022-11-20T20:34:00.752Z,0.90
2022-11-20T20:36:49.919Z,1.30
2022-11-20T20:39:38.766Z,1.10
2022-11-20T20:45:18.489Z,1.10
2022-11-20T20:50:55.993Z,0.97
2022-11-20T20:53:45.295Z,1.23
2022-11-20T20:59:21.934Z,0.87
2022-11-20T21:02:11.851Z,1.53
2022-11-20T21:08:02.530Z,1.00
2022-11-20T21:18:05.011Z,0.90
2022-11-20T21:23:41.724Z,0.80
2022-11-20T21:29:14.172Z,0.87
2022-11-20T21:32:02.382Z,0.97
2022-11-20T21:37:40.863Z,0.90
2022-11-20T21:43:12.031Z,0.90
2022-11-20T21:46:08.704Z,0.90
2022-11-20T21:48:57.110Z,0.80
2022-11-20T21:54:35.266Z,0.70
2022-11-20T21:57:23.928Z,0.90
2022-11-20T22:03:24.174Z,0.80
2022-11-20T22:08:49.812Z,0.77
2022-11-20T22:14:38.680Z,1.00
2022-11-20T22:20:20.272Z,0.83
2022-11-20T22:25:48.896Z,0.90
2022-11-20T22:28:37.853Z,0.80
2022-11-20T22:34:16.457Z,0.80
2022-11-20T22:45:31.372Z,0.90
2022-11-20T22:51:11.094Z,0.80
2022-11-20T22:56:48.434Z,0.80
2022-11-20T22:59:39.573Z,1.00
2022-11-20T23:02:28.070Z,0.80
2022-11-20T23:08:03.563Z,0.93
2022-11-20T23:13:35.613Z,0.90
2022-11-20T23:19:14.115Z,0.87
2022-11-20T23:24:50.658Z,1.10
2022-11-20T23:30:21.429Z,0.93
2022-11-20T23:35:50.564Z,0.90
2022-11-20T23:41:33.401Z,0.90
2022-11-20T23:47:03.352Z,0.83
2022-11-20T23:52:37.499Z,1.00
2022-11-20T23:55:25.729Z,0.80
2022-11-20T23:58:14.295Z,0.80
